Time;durP1;ratioP1;P1;durP2;ratioP2;P2;SDS_P1;SDS_P2;PMS_P1;PMS_P2;Temp;Humidity;BMP_temperature;BMP_pressure;BME280_temperature;BME280_humidity;BME280_pressure;Samples;Min_cycle;Max_cycle;Signal;HPM_P1;HPM_P2
2021/11/09 00:01:10;;;;;;;16.65;6.75;;;;;;;11.30;64.44;101239.84;5092993;28;20040;-57
2021/11/09 00:03:44;;;;;;;15.57;6.57;;;;;;;11.28;64.86;101250.47;5094733;28;20052;-57
2021/11/09 00:06:21;;;;;;;17.90;5.47;;;;;;;11.26;64.21;101241.56;5094522;28;20048;-57
2021/11/09 00:08:54;;;;;;;19.98;6.90;;;;;;;11.22;64.23;101231.31;5092300;28;20056;-56
2021/11/09 00:11:22;;;;;;;21.75;6.30;;;;;;;11.17;64.32;101232.19;5094498;28;20052;-57
2021/11/09 00:13:49;;;;;;;19.15;6.50;;;;;;;11.07;64.33;101224.81;5081574;28;20060;-57
2021/11/09 00:16:17;;;;;;;17.77;6.68;;;;;;;11.01;64.39;101225.19;5093852;28;20059;-56
2021/11/09 00:18:48;;;;;;;14.30;6.35;;;;;;;10.94;64.41;101225.53;5080530;28;20058;-57
2021/11/09 00:21:17;;;;;;;15.68;6.72;;;;;;;10.89;64.52;101223.63;5093687;28;20409;-57
2021/11/09 00:23:46;;;;;;;20.88;6.35;;;;;;;10.79;64.94;101231.28;5094223;28;20414;-56
2021/11/09 00:26:14;;;;;;;18.88;7.20;;;;;;;10.70;64.90;101228.34;5084381;28;20088;-56
2021/11/09 00:28:42;;;;;;;19.10;6.32;;;;;;;10.65;65.00;101228.41;5091423;28;20497;-57
2021/11/09 00:31:10;;;;;;;16.90;6.80;;;;;;;10.58;65.14;101228.75;5075355;28;20044;-57
2021/11/09 00:33:37;;;;;;;19.10;6.57;;;;;;;10.49;65.48;101223.00;5074142;28;20505;-57
2021/11/09 00:36:06;;;;;;;18.77;6.72;;;;;;;10.38;65.77;101229.81;5081002;28;20047;-57
2021/11/09 00:38:35;;;;;;;17.48;7.03;;;;;;;10.30;66.08;101236.03;5081868;28;20449;-57
2021/11/09 00:41:04;;;;;;;20.42;6.65;;;;;;;10.15;66.48;101234.19;5075369;28;20040;-57
2021/11/09 00:43:31;;;;;;;18.98;7.68;;;;;;;10.08;66.75;101228.97;5093938;28;20052;-57
2021/11/09 00:45:59;;;;;;;18.13;6.97;;;;;;;10.04;66.49;101239.03;5094248;28;20059;-57
2021/11/09 00:48:26;;;;;;;23.83;6.93;;;;;;;9.96;66.87;101239.66;5094015;28;20405;-57
2021/11/09 00:50:54;;;;;;;20.83;6.47;;;;;;;9.86;66.76;101240.53;5093326;28;20051;-57
2021/11/09 00:53:22;;;;;;;19.00;7.70;;;;;;;9.76;66.93;101235.06;5093225;28;20067;-56
2021/11/09 00:55:52;;;;;;;22.58;7.88;;;;;;;9.65;67.90;101234.31;5090239;28;20048;-57
2021/11/09 00:58:19;;;;;;;23.08;7.32;;;;;;;9.66;67.65;101249.03;5093534;28;20509;-57
2021/11/09 01:00:48;;;;;;;17.55;7.20;;;;;;;9.57;67.63;101248.84;5092843;28;20066;-56
2021/11/09 01:03:16;;;;;;;23.23;7.07;;;;;;;9.54;67.85;101255.81;5093624;28;20430;-57
2021/11/09 01:05:44;;;;;;;19.48;6.82;;;;;;;9.50;67.57;101253.91;5093426;28;20439;-56
2021/11/09 01:08:14;;;;;;;23.80;7.38;;;;;;;9.40;67.77;101248.41;5082362;28;20056;-57
2021/11/09 01:10:44;;;;;;;22.45;7.63;;;;;;;9.31;68.01;101249.00;5082966;28;20059;-56
2021/11/09 01:13:13;;;;;;;20.50;7.28;;;;;;;9.28;67.89;101245.94;5080332;28;20422;-56
2021/11/09 01:15:48;;;;;;;28.60;8.07;;;;;;;9.15;68.31;101250.19;5093198;28;20056;-57
2021/11/09 01:18:17;;;;;;;20.33;7.50;;;;;;;9.10;67.96;101250.22;5076431;28;20053;-57
2021/11/09 01:20:44;;;;;;;19.58;7.20;;;;;;;9.05;68.05;101259.44;5090125;28;20051;-57
2021/11/09 01:23:12;;;;;;;22.52;7.53;;;;;;;8.93;68.99;101256.16;5093055;28;20056;-56
2021/11/09 01:25:40;;;;;;;22.85;8.55;;;;;;;8.82;69.05;101255.34;5092066;28;20051;-57
2021/11/09 01:28:09;;;;;;;23.25;7.65;;;;;;;8.78;68.89;101247.84;5080946;28;20441;-56
2021/11/09 01:30:38;;;;;;;18.33;7.15;;;;;;;8.72;68.74;101253.44;5092922;28;20197;-57
2021/11/09 01:33:06;;;;;;;25.83;8.77;;;;;;;8.62;69.09;101258.19;5093171;28;20106;-57
2021/11/09 01:35:34;;;;;;;18.48;7.05;;;;;;;8.56;68.66;101256.53;5092587;28;20052;-56
2021/11/09 01:38:02;;;;;;;18.13;7.55;;;;;;;8.49;68.88;101257.66;5092999;28;20434;-56
2021/11/09 01:40:30;;;;;;;23.27;7.88;;;;;;;8.44;69.33;101260.47;5080326;28;20037;-56
2021/11/09 01:42:59;;;;;;;22.23;7.05;;;;;;;8.38;69.37;101264.31;5091529;28;20059;-56
2021/11/09 01:45:27;;;;;;;22.25;7.65;;;;;;;8.35;69.36;101264.88;5092941;28;20418;-56
2021/11/09 01:47:56;;;;;;;15.23;6.85;;;;;;;8.23;69.41;101258.78;5092295;28;20059;-56
2021/11/09 01:50:27;;;;;;;20.02;6.68;;;;;;;8.09;69.46;101259.34;5072946;28;20387;-56
2021/11/09 01:52:55;;;;;;;19.77;7.38;;;;;;;8.06;69.53;101259.06;5072724;28;20059;-55
2021/11/09 01:55:25;;;;;;;21.42;7.38;;;;;;;7.99;69.87;101256.59;5079843;28;20059;-55
2021/11/09 01:57:53;;;;;;;20.38;7.38;;;;;;;7.93;70.45;101258.50;5083074;28;20528;-56
2021/11/09 02:00:24;;;;;;;20.17;7.63;;;;;;;7.89;70.51;101246.31;5092628;28;20479;-56
2021/11/09 02:02:53;;;;;;;20.90;7.38;;;;;;;7.86;69.96;101244.09;5092658;28;20052;-56
2021/11/09 02:05:22;;;;;;;16.75;7.18;;;;;;;7.81;70.65;101240.47;5080132;28;20048;-56
2021/11/09 02:07:53;;;;;;;20.48;7.35;;;;;;;7.75;70.93;101238.81;5079604;28;20044;-56
2021/11/09 02:10:23;;;;;;;17.35;7.18;;;;;;;7.69;70.88;101241.59;5083039;28;20055;-56
2021/11/09 02:12:51;;;;;;;17.00;7.20;;;;;;;7.64;70.59;101236.06;5088881;28;20052;-56
2021/11/09 02:15:19;;;;;;;22.38;7.53;;;;;;;7.60;71.11;101242.41;5091914;28;20060;-57
2021/11/09 02:17:48;;;;;;;22.70;7.97;;;;;;;7.58;70.69;101236.31;5091605;28;20055;-55
2021/11/09 02:20:19;;;;;;;15.97;7.23;;;;;;;7.55;70.04;101243.25;5090075;28;20052;-56
2021/11/09 02:22:49;;;;;;;19.63;7.20;;;;;;;7.50;70.28;101240.47;5091511;28;20063;-56
2021/11/09 02:25:19;;;;;;;18.35;7.10;;;;;;;7.45;70.47;101248.78;5091990;28;20055;-56
2021/11/09 02:27:47;;;;;;;21.33;8.43;;;;;;;7.43;71.65;101249.06;5082386;28;20048;-56
2021/11/09 02:30:19;;;;;;;23.23;7.70;;;;;;;7.38;71.46;101250.97;5089498;28;20044;-56
2021/11/09 02:32:47;;;;;;;22.95;7.50;;;;;;;7.38;71.41;101253.75;5092610;28;20048;-56
2021/11/09 02:35:14;;;;;;;24.13;8.63;;;;;;;7.34;71.58;101259.00;5092363;28;20056;-56
2021/11/09 02:37:42;;;;;;;19.38;7.38;;;;;;;7.31;70.71;101259.56;5092020;28;20094;-56
2021/11/09 02:40:12;;;;;;;20.13;7.38;;;;;;;7.23;71.48;101262.88;5091432;28;20040;-56
2021/11/09 02:42:42;;;;;;;28.45;8.90;;;;;;;7.27;71.01;101262.03;5092347;28;20059;-56
2021/11/09 02:45:18;;;;;;;16.90;7.00;;;;;;;7.22;71.39;101269.50;5092065;28;20052;-56
2021/11/09 02:47:50;;;;;;;23.02;7.82;;;;;;;7.19;71.65;101272.81;5091403;28;20408;-56
2021/11/09 02:50:19;;;;;;;21.63;7.53;;;;;;;7.15;71.27;101269.75;5088473;28;20056;-56
2021/11/09 02:52:53;;;;;;;22.50;9.25;;;;;;;7.07;71.57;101284.13;5076821;28;20048;-56
2021/11/09 02:55:28;;;;;;;30.58;9.52;;;;;;;6.99;71.37;101276.34;5086121;28;20056;-56
2021/11/09 02:58:01;;;;;;;25.38;8.77;;;;;;;6.99;72.20;101276.34;5085547;28;20048;-56
2021/11/09 03:00:30;;;;;;;22.27;8.25;;;;;;;6.94;72.31;101281.88;5086242;28;20063;-57
2021/11/09 03:03:02;;;;;;;25.15;8.48;;;;;;;6.86;72.11;101270.19;5091948;28;20421;-56
2021/11/09 03:05:33;;;;;;;22.60;8.07;;;;;;;6.81;72.33;101284.03;5092243;28;20063;-56
2021/11/09 03:08:09;;;;;;;19.85;8.60;;;;;;;6.80;71.75;101287.88;5089407;28;20075;-56
2021/11/09 03:10:41;;;;;;;20.88;8.02;;;;;;;6.75;72.43;101290.63;5074304;28;20060;-56
2021/11/09 03:13:09;;;;;;;21.83;8.35;;;;;;;6.74;72.75;101285.34;5087925;28;20059;-56
2021/11/09 03:15:37;;;;;;;21.48;7.97;;;;;;;6.70;72.13;101287.84;5091757;28;20064;-55
2021/11/09 03:18:07;;;;;;;19.73;8.40;;;;;;;6.70;71.95;101287.84;5074927;28;20056;-56
2021/11/09 03:20:37;;;;;;;;;;;;;;;6.62;72.88;101285.59;5087612;28;20502;-56
2021/11/09 03:45:30;;;;;;;25.25;8.70;;;;;;;6.30;73.15;101300.31;5033588;28;20068;-55
2021/11/09 03:48:04;;;;;;;25.10;8.98;;;;;;;6.28;73.56;101308.88;5068394;28;20392;-55
2021/11/09 03:50:33;;;;;;;17.20;8.05;;;;;;;6.27;73.93;101309.13;5095074;28;20047;-57
2021/11/09 03:53:04;;;;;;;19.33;8.52;;;;;;;6.26;73.37;101311.06;5094967;28;20055;-57
2021/11/09 03:55:40;;;;;;;20.02;8.45;;;;;;;6.26;73.30;101310.25;5088968;28;20498;-56
2021/11/09 03:58:16;;;;;;;18.75;8.13;;;;;;;6.25;73.36;101322.41;5089270;28;20044;-57
2021/11/09 04:00:47;;;;;;;16.70;7.32;;;;;;;6.20;73.64;101311.31;5094458;28;20063;-57
2021/11/09 04:03:25;;;;;;;19.48;7.97;;;;;;;6.23;73.17;101319.88;5094624;28;20056;-57
2021/11/09 04:05:56;;;;;;;18.42;7.65;;;;;;;6.23;72.87;101316.28;5094521;28;20048;-57
2021/11/09 04:08:38;;;;;;;23.17;10.57;;;;;;;6.18;73.46;101313.50;5090010;28;20051;-57
2021/11/09 04:11:12;;;;;;;24.30;8.55;;;;;;;6.15;73.11;101320.38;5089760;28;20051;-57
2021/11/09 04:13:45;;;;;;;19.52;8.48;;;;;;;6.16;72.99;101326.75;5094361;28;20055;-57
2021/11/09 04:16:30;;;;;;;23.05;8.73;;;;;;;6.10;73.55;101325.88;5094380;28;20056;-57
2021/11/09 04:19:07;;;;;;;17.75;8.48;;;;;;;6.08;73.03;101320.59;5076127;28;20059;-57
2021/11/09 04:21:51;;;;;;;24.80;9.45;;;;;;;6.03;73.51;101328.03;5093751;28;20052;-57
2021/11/09 04:24:45;;;;;;;27.45;9.70;;;;;;;6.09;73.46;101321.47;5083295;28;20402;-57
2021/11/09 04:27:38;;;;;;;26.15;9.43;;;;;;;6.07;73.50;101318.13;5075363;28;20679;-57
2021/11/09 04:30:33;;;;;;;23.17;9.27;;;;;;;6.03;73.20;101312.28;5074377;28;20402;-57
2021/11/09 04:33:31;;;;;;;18.67;8.13;;;;;;;6.00;73.19;101317.50;5073943;28;20049;-57
2021/11/09 05:01:17;;;;;;;22.13;8.70;;;;;;;5.90;73.33;101330.09;5091700;28;20466;-56
2021/11/09 05:09:17;;;;;;;24.17;9.65;;;;;;;5.87;73.68;101322.31;5092484;28;20063;-56
2021/11/09 05:11:45;;;;;;;;;;;;;;;5.87;74.22;101318.72;5092765;28;20497;-56
2021/11/09 05:14:14;;;;;;;25.17;9.65;;;;;;;5.86;73.51;101326.19;5088438;28;19920;-56
2021/11/09 05:16:43;;;;;;;27.55;10.43;;;;;;;5.87;73.92;101325.09;5093204;28;20055;-56
2021/11/09 05:19:12;;;;;;;27.67;9.68;;;;;;;5.83;73.96;101329.47;5092773;28;20059;-57
2021/11/09 05:21:41;;;;;;;23.13;9.88;;;;;;;5.86;73.97;101333.66;5075140;28;20040;-57
2021/11/09 05:24:09;;;;;;;24.67;9.77;;;;;;;5.84;73.67;101335.84;5084781;28;20055;-56
2021/11/09 05:26:38;;;;;;;25.70;10.07;;;;;;;5.88;73.34;101342.53;5091558;28;20506;-56
2021/11/09 05:29:06;;;;;;;24.00;9.45;;;;;;;5.90;73.30;101340.34;5075899;28;20060;-57
2021/11/09 05:31:34;;;;;;;20.50;9.20;;;;;;;5.88;72.69;101340.59;5091675;28;20058;-57
2021/11/09 05:34:02;;;;;;;22.67;8.90;;;;;;;5.85;73.68;101343.03;5085493;28;20052;-57
2021/11/09 05:36:33;;;;;;;23.38;10.25;;;;;;;5.84;73.15;101344.16;5077056;28;20063;-57
2021/11/09 05:39:08;;;;;;;19.45;9.38;;;;;;;5.84;73.03;101349.69;5072677;28;20052;-56
2021/11/09 05:41:37;;;;;;;22.33;9.80;;;;;;;5.84;72.51;101344.97;5084792;28;20052;-56
2021/11/09 05:44:06;;;;;;;22.05;9.43;;;;;;;5.81;73.13;101353.78;5092893;28;20052;-57
2021/11/09 05:46:34;;;;;;;24.20;9.43;;;;;;;5.73;72.58;101357.00;5086775;28;20048;-56
2021/11/09 05:49:01;;;;;;;24.42;9.90;;;;;;;5.68;73.12;101348.66;5094249;28;20052;-56
2021/11/09 05:51:29;;;;;;;24.00;8.98;;;;;;;5.65;73.27;101355.56;5092558;28;20059;-57
2021/11/09 05:54:00;;;;;;;16.63;8.45;;;;;;;5.60;73.38;101344.44;5092102;28;20510;-57
2021/11/09 05:56:28;;;;;;;20.90;8.57;;;;;;;5.55;72.83;101352.69;5089346;28;20052;-57
2021/11/09 05:58:55;;;;;;;20.70;9.00;;;;;;;5.53;72.76;101351.28;5079050;28;20059;-57
2021/11/09 06:01:23;;;;;;;22.98;8.98;;;;;;;5.48;72.69;101354.78;5074461;28;20051;-56
2021/11/09 06:03:50;;;;;;;21.85;9.45;;;;;;;5.45;72.55;101360.84;5086465;28;20465;-57
2021/11/09 06:06:20;;;;;;;19.52;9.25;;;;;;;5.47;72.47;101356.72;5089508;28;20044;-57
2021/11/09 06:08:50;;;;;;;23.08;8.80;;;;;;;5.47;72.02;101362.25;5090887;28;20055;-58
2021/11/09 06:11:19;;;;;;;19.35;9.30;;;;;;;5.46;72.04;101365.28;5087023;28;20059;-57
2021/11/09 06:13:47;;;;;;;19.83;9.02;;;;;;;5.46;72.53;101368.88;5082969;28;20049;-57
2021/11/09 06:16:17;;;;;;;19.88;8.75;;;;;;;5.31;72.39;101359.56;5089374;28;20055;-58
2021/11/09 06:18:45;;;;;;;21.20;8.68;;;;;;;4.78;75.50;101375.69;5088498;28;20436;-57
2021/11/09 06:21:12;;;;;;;22.65;9.02;;;;;;;5.10;75.04;101373.09;5091603;28;20052;-61
2021/11/09 06:23:40;;;;;;;20.80;9.30;;;;;;;5.30;74.26;101369.78;5092272;28;20055;-60
2021/11/09 06:26:07;;;;;;;22.02;8.80;;;;;;;5.44;73.69;101378.53;5089869;28;20068;-60
2021/11/09 06:28:38;;;;;;;16.63;7.82;;;;;;;5.50;73.43;101369.19;5091839;28;20044;-60
2021/11/09 06:31:06;;;;;;;17.48;8.02;;;;;;;5.57;72.85;101375.38;5091096;28;20498;-60
2021/11/09 06:33:33;;;;;;;18.85;7.65;;;;;;;5.54;72.99;101381.38;5087387;28;20048;-60
2021/11/09 06:36:01;;;;;;;19.63;8.05;;;;;;;5.46;72.50;101384.63;5089537;28;20070;-61
2021/11/09 06:38:28;;;;;;;17.20;8.05;;;;;;;5.49;72.85;101398.75;5076665;28;20055;-61
2021/11/09 06:40:56;;;;;;;17.58;7.93;;;;;;;5.60;72.46;101393.34;5086828;28;20048;-60
2021/11/09 06:43:23;;;;;;;13.50;6.60;;;;;;;5.61;72.10;101398.63;5088687;28;20067;-61
2021/11/09 06:45:56;;;;;;;19.23;7.32;;;;;;;5.69;71.45;101405.59;5089848;28;20406;-61
2021/11/09 06:48:24;;;;;;;17.10;7.25;;;;;;;5.75;71.89;101403.75;5083752;28;20059;-60
2021/11/09 06:50:51;;;;;;;16.30;7.32;;;;;;;5.76;71.66;101402.66;5074985;28;20528;-60
2021/11/09 06:53:19;;;;;;;22.77;8.70;;;;;;;5.78;71.22;101406.84;5078457;28;20044;-60
2021/11/09 06:55:47;;;;;;;20.55;8.23;;;;;;;5.79;71.69;101410.44;5090180;28;20052;-61
2021/11/09 06:58:16;;;;;;;16.98;8.73;;;;;;;5.89;71.28;101405.00;5091337;28;20052;-60
2021/11/09 07:00:45;;;;;;;16.73;7.63;;;;;;;5.90;71.02;101407.53;5091402;28;20487;-60
2021/11/09 07:03:13;;;;;;;20.05;8.52;;;;;;;5.95;71.48;101408.72;5088040;28;20044;-61
2021/11/09 07:05:41;;;;;;;23.02;9.45;;;;;;;6.01;71.21;101402.97;5085092;28;20055;-61
2021/11/09 07:08:08;;;;;;;21.30;9.65;;;;;;;6.03;70.80;101406.31;5093505;28;20048;-60
2021/11/09 07:10:36;;;;;;;20.33;9.25;;;;;;;5.96;70.57;101410.38;5078913;28;20058;-60
2021/11/09 07:13:03;;;;;;;16.83;8.57;;;;;;;6.07;70.29;101401.91;5090766;28;20489;-60
2021/11/09 07:15:31;;;;;;;20.08;9.05;;;;;;;6.24;71.04;101401.81;5098775;28;20059;-60
2021/11/09 07:17:59;;;;;;;23.67;9.23;;;;;;;6.33;70.32;101407.69;5092314;28;20413;-60
2021/11/09 07:20:28;;;;;;;21.50;8.20;;;;;;;6.46;70.38;101411.94;5091229;28;20052;-60
2021/11/09 07:23:00;;;;;;;17.95;9.20;;;;;;;6.59;69.92;101421.75;5089488;28;20063;-60
2021/11/09 07:25:28;;;;;;;22.38;8.75;;;;;;;6.58;69.40;101429.22;5094793;28;20056;-60
2021/11/09 07:27:55;;;;;;;20.17;8.93;;;;;;;6.64;69.15;101427.34;5093148;28;20044;-60
2021/11/09 07:30:23;;;;;;;22.05;9.63;;;;;;;6.63;68.59;101436.72;5094718;28;20054;-60
2021/11/09 07:32:51;;;;;;;19.38;8.52;;;;;;;6.77;69.00;101439.88;5090848;28;20047;-59
2021/11/09 07:35:19;;;;;;;19.40;9.18;;;;;;;6.76;68.56;101441.84;5094587;28;20059;-60
2021/11/09 07:37:47;;;;;;;24.65;8.57;;;;;;;6.94;68.65;101439.72;5093478;28;20067;-60
2021/11/09 07:40:16;;;;;;;20.45;8.18;;;;;;;7.06;67.48;101441.19;5090920;28;20052;-60
2021/11/09 07:42:47;;;;;;;14.38;7.53;;;;;;;7.59;67.61;101443.16;5087905;28;20052;-60
2021/11/09 07:45:17;;;;;;;17.92;7.05;;;;;;;6.38;69.84;101440.94;5088929;28;20052;-54
2021/11/09 07:47:47;;;;;;;13.48;6.95;;;;;;;6.75;68.95;101451.22;5082539;28;20052;-54
2021/11/09 07:50:15;;;;;;;14.18;7.30;;;;;;;7.23;68.82;101445.75;5089480;28;20055;-60
2021/11/09 07:52:44;;;;;;;12.02;6.18;;;;;;;8.82;66.16;101438.69;5078538;28;20056;-61
2021/11/09 07:55:17;;;;;;;15.45;6.47;;;;;;;10.09;62.42;101433.00;5090351;28;20055;-60
2021/11/09 07:57:47;;;;;;;10.43;5.80;;;;;;;10.61;59.84;101439.91;5090530;28;20048;-61
2021/11/09 08:00:25;;;;;;;10.00;5.22;;;;;;;11.06;58.33;101437.81;5091943;28;20060;-61
2021/11/09 08:03:07;;;;;;;11.00;5.40;;;;;;;12.18;55.71;101435.66;5088860;28;20135;-61
2021/11/09 08:05:39;;;;;;;9.80;4.22;;;;;;;13.50;51.62;101432.84;5091582;28;20067;-61
2021/11/09 08:08:11;;;;;;;13.07;5.05;;;;;;;14.13;49.18;101429.25;5090132;28;20048;-59
2021/11/09 08:10:40;;;;;;;10.15;4.88;;;;;;;14.73;47.64;101432.91;5086781;28;20071;-60
2021/11/09 08:13:07;;;;;;;11.20;5.28;;;;;;;15.43;45.97;101429.34;5089880;28;20051;-59
2021/11/09 08:15:35;;;;;;;14.90;6.47;;;;;;;16.85;43.39;101430.06;5089176;28;20057;-60
2021/11/09 08:18:03;;;;;;;9.98;5.20;;;;;;;17.89;40.98;101416.75;5088574;28;20056;-60
2021/11/09 08:20:30;;;;;;;8.38;5.32;;;;;;;18.41;39.65;101416.38;5090002;28;20060;-60
2021/11/09 08:22:58;;;;;;;23.40;7.80;;;;;;;19.64;37.21;101411.06;5089301;28;20059;-60
2021/11/09 08:25:26;;;;;;;17.08;7.10;;;;;;;20.34;35.22;101412.88;5090516;28;20074;-60
2021/11/09 08:27:55;;;;;;;13.90;5.63;;;;;;;21.02;33.61;101406.34;5092222;28;20059;-60
2021/11/09 08:30:22;;;;;;;13.93;7.05;;;;;;;21.67;32.60;101409.69;5090241;28;20064;-60
2021/11/09 08:32:49;;;;;;;13.77;6.05;;;;;;;22.06;31.76;101398.44;5087380;28;20044;-59
2021/11/09 08:35:21;;;;;;;15.10;6.07;;;;;;;22.74;30.94;101406.78;5087572;28;20044;-60
2021/11/09 08:37:50;;;;;;;15.38;6.70;;;;;;;23.20;30.23;101402.00;5084118;28;20052;-59
2021/11/09 08:40:20;;;;;;;14.43;7.97;;;;;;;23.54;29.50;101401.34;5088058;28;20058;-60
2021/11/09 08:42:49;;;;;;;12.02;7.22;;;;;;;24.21;28.68;101406.47;5076251;28;20044;-60
2021/11/09 08:45:24;;;;;;;10.77;6.28;;;;;;;24.62;28.27;101409.50;5091067;28;20521;-60
2021/11/09 08:47:54;;;;;;;14.85;7.10;;;;;;;25.01;27.56;101406.25;5080740;28;20044;-60
2021/11/09 08:50:25;;;;;;;15.27;6.85;;;;;;;25.38;26.78;101394.81;5088961;28;20044;-60
2021/11/09 08:52:55;;;;;;;10.93;6.57;;;;;;;25.85;26.26;101400.88;5090567;28;20060;-60
2021/11/09 08:55:31;;;;;;;17.85;7.00;;;;;;;25.96;26.29;101395.31;5091458;28;20520;-60
2021/11/09 08:58:19;;;;;;;15.18;6.63;;;;;;;26.24;25.86;101389.75;5089225;28;20410;-61
2021/11/09 09:01:17;;;;;;;10.43;5.88;;;;;;;26.44;25.99;101398.81;5079956;28;20048;-60
2021/11/09 09:06:31;;;;;;;14.82;5.95;;;;;;;27.19;24.90;101398.22;5087534;28;20058;-60
2021/11/09 09:08:58;;;;;;;12.88;6.13;;;;;;;27.35;24.87;101395.00;5086543;28;20058;-60
2021/11/09 09:11:26;;;;;;;12.75;5.80;;;;;;;27.45;24.53;101388.47;5081401;28;20052;-61
2021/11/09 09:13:53;;;;;;;9.95;5.85;;;;;;;27.66;24.49;101393.38;5083802;28;20051;-60
2021/11/09 09:16:22;;;;;;;9.90;6.13;;;;;;;27.79;23.85;101396.63;5089580;28;20044;-59
2021/11/09 09:18:50;;;;;;;10.20;5.90;;;;;;;27.93;23.98;101390.91;5091000;28;20048;-59
2021/11/09 09:21:23;;;;;;;11.02;5.93;;;;;;;28.22;23.48;101396.53;5088409;28;20724;-60
2021/11/09 09:23:53;;;;;;;11.90;6.20;;;;;;;28.19;23.46;101396.56;5080267;28;20047;-60
2021/11/09 09:26:29;;;;;;;9.25;5.40;;;;;;;28.62;22.91;101397.25;5091510;28;20055;-60
2021/11/09 09:29:25;;;;;;;11.98;6.10;;;;;;;28.82;23.01;101397.56;5088515;28;20055;-60
2021/11/09 09:32:24;;;;;;;12.70;6.28;;;;;;;29.35;22.16;101404.19;5083974;28;20052;-60
2021/11/09 09:57:04;;;;;;;4.03;2.05;;;;;;;28.51;19.25;101402.22;5080647;28;20056;-59
2021/11/09 09:59:35;;;;;;;5.35;2.13;;;;;;;28.31;20.59;101399.81;5085209;28;20052;-59
2021/11/09 10:02:12;;;;;;;5.13;1.98;;;;;;;27.78;20.07;101409.28;5085966;28;20052;-59
2021/11/09 10:04:44;;;;;;;5.10;2.03;;;;;;;28.42;19.73;101411.22;5088571;28;20040;-59
2021/11/09 10:07:13;;;;;;;4.72;2.15;;;;;;;28.10;19.46;101414.19;5089384;28;20052;-59
2021/11/09 10:09:44;;;;;;;5.00;1.95;;;;;;;27.66;19.98;101401.16;5088483;28;20040;-59
2021/11/09 10:12:17;;;;;;;4.70;1.90;;;;;;;27.56;20.69;101416.28;5087363;28;20051;-60
2021/11/09 10:14:46;;;;;;;3.47;1.73;;;;;;;26.97;20.21;101405.97;5092139;28;20059;-60
2021/11/09 10:17:15;;;;;;;5.13;2.03;;;;;;;26.70;20.57;101420.59;5085519;28;20429;-60
2021/11/09 10:19:43;;;;;;;;;;;;;;;25.81;21.49;101418.00;5091641;28;20474;-60
2021/11/09 10:22:24;;;;;;;6.10;2.00;;;;;;;25.01;22.76;101411.94;5101221;28;19919;-60
2021/11/09 10:24:54;;;;;;;4.07;1.70;;;;;;;24.61;23.33;101413.53;5093491;28;20044;-60
2021/11/09 10:27:22;;;;;;;6.20;2.00;;;;;;;25.28;21.84;101424.06;5085822;28;20056;-59
2021/11/09 10:29:52;;;;;;;5.47;2.17;;;;;;;25.24;22.72;101412.66;5088685;28;20059;-59
2021/11/09 10:32:22;;;;;;;4.32;2.08;;;;;;;24.71;22.63;101419.38;5087917;28;20059;-59
2021/11/09 10:34:53;;;;;;;5.35;2.05;;;;;;;25.51;22.14;101421.00;5089043;28;20048;-59
2021/11/09 10:37:25;;;;;;;4.18;1.95;;;;;;;25.62;21.67;101438.22;5094034;28;20062;-59
2021/11/09 10:39:54;;;;;;;3.70;1.70;;;;;;;24.67;22.96;101431.91;5088122;28;20052;-59
2021/11/09 10:42:24;;;;;;;3.00;1.80;;;;;;;24.68;23.53;101425.84;5092248;28;20048;-59
2021/11/09 10:44:57;;;;;;;4.95;1.92;;;;;;;24.88;23.28;101417.09;5095785;28;20398;-60
2021/11/09 10:47:31;;;;;;;3.53;1.92;;;;;;;26.12;22.16;101418.63;5093276;28;20402;-59
2021/11/09 10:50:03;;;;;;;5.30;1.90;;;;;;;26.75;21.32;101418.56;5088992;28;20044;-59
2021/11/09 10:52:34;;;;;;;5.88;1.77;;;;;;;26.41;21.00;101413.09;5091899;28;20048;-59
2021/11/09 10:55:09;;;;;;;4.80;1.80;;;;;;;26.31;21.41;101406.94;5094365;28;20512;-60
2021/11/09 10:57:49;;;;;;;4.78;1.90;;;;;;;26.19;21.76;101415.84;5095073;28;20608;-59
2021/11/09 11:00:46;;;;;;;5.40;1.80;;;;;;;27.78;20.50;101409.28;5094305;28;20064;-59
2021/11/09 11:03:21;;;;;;;4.13;1.60;;;;;;;26.90;20.63;101409.63;5086790;28;20186;-59
2021/11/09 11:05:50;;;;;;;3.80;1.73;;;;;;;26.93;20.52;101402.28;5088337;28;20040;-59
2021/11/09 11:08:17;;;;;;;5.25;1.80;;;;;;;26.07;21.08;101399.84;5095477;28;20395;-60
2021/11/09 11:10:45;;;;;;;5.55;2.10;;;;;;;26.45;20.82;101413.91;5094932;28;20048;-59
2021/11/09 11:13:24;;;;;;;3.47;1.58;;;;;;;26.69;21.05;101398.97;5093426;28;20059;-59
2021/11/09 11:16:03;;;;;;;5.63;2.15;;;;;;;27.49;20.25;101391.34;5092462;28;20056;-59
2021/11/09 11:18:33;;;;;;;3.95;1.80;;;;;;;27.34;19.85;101396.25;5091613;28;20430;-59
2021/11/09 11:21:02;;;;;;;6.47;1.98;;;;;;;27.40;19.54;101391.72;5094648;28;20047;-58
2021/11/09 11:23:30;;;;;;;3.05;1.50;;;;;;;27.17;19.87;101394.16;5095737;28;20383;-59
2021/11/09 11:25:59;;;;;;;3.65;1.73;;;;;;;26.31;20.66;101392.66;5092805;28;20047;-59
2021/11/09 11:28:27;;;;;;;3.35;1.70;;;;;;;26.75;20.31;101392.84;5094343;28;20056;-59
2021/11/09 11:30:56;;;;;;;4.32;2.05;;;;;;;26.89;20.00;101390.00;5088397;28;20048;-59
2021/11/09 11:33:24;;;;;;;4.22;1.77;;;;;;;26.11;21.07;101385.59;5086484;28;20070;-59
2021/11/09 11:35:52;;;;;;;3.45;1.80;;;;;;;26.15;21.64;101380.72;5093990;28;20047;-59
2021/11/09 11:38:22;;;;;;;3.23;1.77;;;;;;;26.56;20.31;101389.06;5091444;28;20487;-58
2021/11/09 11:40:57;;;;;;;5.35;1.77;;;;;;;25.89;20.87;101391.19;5090080;28;20063;-60
2021/11/09 11:43:53;;;;;;;4.40;1.95;;;;;;;24.51;22.56;101393.09;5087508;28;20063;-59
2021/11/09 11:46:47;;;;;;;4.63;1.85;;;;;;;25.44;21.69;101387.53;5090530;28;20063;-59
2021/11/09 11:49:26;;;;;;;5.88;1.90;;;;;;;26.17;21.50;101380.34;5087537;28;20063;-59
2021/11/09 11:52:15;;;;;;;4.55;1.75;;;;;;;26.05;21.00;101372.91;5093257;28;20059;-60
2021/11/09 11:55:04;;;;;;;5.07;1.88;;;;;;;26.46;20.95;101367.00;5089459;28;20055;-61
2021/11/09 11:57:36;;;;;;;;;;;;;;;25.41;21.47;101367.53;5084809;28;20087;-59
2021/11/09 12:00:39;;;;;;;8.13;2.08;;;;;;;26.61;20.79;101363.00;5091278;28;19927;-58
2021/11/09 12:03:43;;;;;;;3.85;1.77;;;;;;;26.49;20.77;101349.84;5084290;28;20387;-59
2021/11/09 12:06:32;;;;;;;5.30;2.20;;;;;;;26.77;20.92;101344.66;5084767;28;20057;-59
2021/11/09 12:08:59;;;;;;;5.35;2.10;;;;;;;27.52;19.55;101354.13;5074237;28;20052;-58
2021/11/09 12:11:42;;;;;;;6.22;2.13;;;;;;;27.06;20.03;101349.19;5083958;28;20051;-59
2021/11/09 12:14:12;;;;;;;5.18;2.08;;;;;;;27.37;20.20;101338.19;5090165;28;20052;-59
2021/11/09 12:16:48;;;;;;;3.97;1.67;;;;;;;27.36;20.08;101347.19;5091104;28;20052;-59
2021/11/09 12:19:47;;;;;;;4.03;2.13;;;;;;;27.77;19.76;101341.00;5091570;28;20048;-59
2021/11/09 12:22:16;;;;;;;5.28;2.72;;;;;;;27.35;20.42;101334.94;5097027;28;20052;-59
2021/11/09 12:24:49;;;;;;;3.70;1.98;;;;;;;28.23;19.93;101334.34;5084952;28;20064;-58
2021/11/09 12:27:18;;;;;;;8.02;2.28;;;;;;;28.34;19.17;101330.19;5088539;28;20414;-59
2021/11/09 12:29:48;;;;;;;5.35;2.15;;;;;;;27.14;20.47;101327.94;5086898;28;20060;-59
2021/11/09 12:32:40;;;;;;;3.60;1.98;;;;;;;27.71;19.80;101321.38;5091347;28;20059;-59
2021/11/09 12:35:24;;;;;;;5.63;1.98;;;;;;;28.32;19.88;101326.94;5077809;28;20051;-59
2021/11/09 12:38:16;;;;;;;5.43;2.20;;;;;;;27.39;20.15;101310.00;5090752;28;20048;-58
2021/11/09 12:40:57;;;;;;;5.35;2.00;;;;;;;27.75;20.20;101309.94;5090706;28;20052;-59
2021/11/09 12:43:43;;;;;;;4.32;2.08;;;;;;;27.42;20.10;101314.88;5090383;28;20052;-59
2021/11/09 12:46:15;;;;;;;4.07;2.05;;;;;;;29.15;19.05;101309.25;5078960;28;20405;-59
2021/11/09 12:48:49;;;;;;;4.15;2.05;;;;;;;29.04;19.42;101320.78;5091583;28;20048;-59
2021/11/09 12:51:19;;;;;;;5.40;2.40;;;;;;;27.76;20.63;101311.56;5091734;28;20052;-59
2021/11/09 12:53:48;;;;;;;6.72;2.50;;;;;;;27.97;20.46;101309.88;5085073;28;20048;-59
2021/11/09 12:56:22;;;;;;;5.32;2.28;;;;;;;27.72;20.29;101311.56;5085958;28;20083;-59
2021/11/09 12:58:56;;;;;;;8.20;3.13;;;;;;;27.85;20.55;101299.69;5090854;28;20052;-60
2021/11/09 13:01:38;;;;;;;6.95;2.63;;;;;;;27.47;21.08;101305.91;5091840;28;20071;-59
2021/11/09 13:04:19;;;;;;;5.75;2.22;;;;;;;28.05;20.30;101308.63;5087799;28;20490;-58